Time;durP1;ratioP1;P1;durP2;ratioP2;P2;SDS_P1;SDS_P2;PMS_P1;PMS_P2;Temp;Humidity;BMP_temperature;BMP_pressure;BME280_temperature;BME280_humidity;BME280_pressure;Samples;Min_cycle;Max_cycle;Signal;HPM_P1;HPM_P2
2022/01/18 00:01:08;;;;;;;14.05;4.10;;;;;;;-4.75;100.00;103197.22;5045416;28;20043;-52
2022/01/18 00:03:33;;;;;;;25.27;4.00;;;;;;;-4.78;100.00;103186.88;5037360;28;20033;-51
2022/01/18 00:05:58;;;;;;;14.63;4.05;;;;;;;-4.76;100.00;103190.31;5038772;28;20119;-53
2022/01/18 00:08:24;;;;;;;15.07;4.03;;;;;;;-4.74;100.00;103185.97;5035441;28;20060;-51
2022/01/18 00:10:49;;;;;;;10.02;4.50;;;;;;;-4.78;100.00;103193.81;5038119;28;20039;-52
2022/01/18 00:16:10;;;;;;;5.65;3.47;;;;;;;-4.87;100.00;103200.00;5039557;28;20037;-49
2022/01/18 00:18:37;;;;;;;9.95;4.20;;;;;;;-4.84;100.00;103197.34;5039452;28;20421;-50
2022/01/18 00:23:33;;;;;;;6.43;2.58;;;;;;;-4.92;100.00;103194.03;5037240;28;20030;-50
2022/01/18 00:25:59;;;;;;;13.15;4.00;;;;;;;-4.96;100.00;103194.94;5039388;28;20056;-48
2022/01/18 00:28:27;;;;;;;10.98;3.70;;;;;;;-4.95;100.00;103197.53;5040504;28;20048;-49
2022/01/18 00:31:20;;;;;;;17.95;3.88;;;;;;;-4.92;100.00;103194.03;5041760;28;20445;-51
2022/01/18 00:36:06;;;;;;;12.05;3.60;;;;;;;-4.91;100.00;103193.16;5035602;28;20037;-48
2022/01/18 00:38:46;;;;;;;12.10;3.50;;;;;;;-4.98;100.00;103182.06;5042474;28;20041;-49
2022/01/18 00:41:13;;;;;;;19.25;4.75;;;;;;;-5.00;100.00;103180.38;5036620;28;20537;-52
2022/01/18 00:43:39;;;;;;;14.18;3.90;;;;;;;-4.98;100.00;103179.47;5034846;28;20040;-52
2022/01/18 00:46:05;;;;;;;12.55;4.22;;;;;;;-4.99;100.00;103184.66;5036423;28;20037;-51
2022/01/18 00:48:34;;;;;;;9.13;3.65;;;;;;;-4.99;100.00;103176.88;5039390;28;20029;-48
2022/01/18 00:51:00;;;;;;;6.80;3.28;;;;;;;-5.02;100.00;103171.78;5032557;28;20371;-49
2022/01/18 00:53:26;;;;;;;19.13;4.50;;;;;;;-5.03;100.00;103173.50;5036586;28;20056;-49
2022/01/18 00:58:26;;;;;;;12.85;3.15;;;;;;;-5.07;100.00;103164.91;5035057;28;20402;-50
2022/01/18 01:00:52;;;;;;;4.35;2.42;;;;;;;-5.10;100.00;103161.53;5042057;28;20054;-49
2022/01/18 01:03:17;;;;;;;9.80;2.92;;;;;;;-5.12;100.00;103161.56;5039663;28;20078;-52
2022/01/18 01:05:42;;;;;;;6.75;3.00;;;;;;;-5.11;100.00;103158.09;5042524;28;20037;-53
2022/01/18 01:08:08;;;;;;;6.22;2.35;;;;;;;-5.09;100.00;103156.31;5039444;28;20538;-52
2022/01/18 01:10:33;;;;;;;9.60;3.30;;;;;;;-5.10;100.00;103149.44;5040959;28;20465;-52
2022/01/18 01:12:59;;;;;;;8.82;4.30;;;;;;;-5.13;100.00;103154.69;5041593;28;20029;-50
2022/01/18 01:15:26;;;;;;;8.70;2.75;;;;;;;-5.13;100.00;103153.84;5036563;28;20040;-53
2022/01/18 01:18:09;;;;;;;9.90;5.07;;;;;;;-5.18;100.00;103145.28;5039924;28;20041;-51
2022/01/18 01:37:14;;;;;;;7.88;1.95;;;;;;;-5.27;100.00;103143.69;5037989;28;20195;-48
2022/01/18 01:45:10;;;;;;;11.20;2.03;;;;;;;-5.32;100.00;103137.72;5033890;28;20041;-54
2022/01/18 01:47:37;;;;;;;6.13;2.53;;;;;;;-5.32;100.00;103142.91;5034631;28;20041;-52
2022/01/18 01:50:16;;;;;;;9.60;1.95;;;;;;;-5.31;100.00;103139.44;5045213;28;20130;-52
2022/01/18 01:52:41;;;;;;;3.78;1.65;;;;;;;-5.34;100.00;103142.09;5038145;28;20390;-54
2022/01/18 01:55:07;;;;;;;9.57;1.95;;;;;;;-5.35;100.00;103142.94;5045273;28;20462;-52
2022/01/18 01:57:33;;;;;;;4.70;2.40;;;;;;;-5.39;100.00;103138.72;5038366;28;20429;-50
2022/01/18 01:59:59;;;;;;;8.82;3.42;;;;;;;-5.41;100.00;103141.31;5044700;28;20025;-52
2022/01/18 02:02:27;;;;;;;10.25;2.78;;;;;;;-5.40;100.00;103139.56;5048091;28;20453;-52
2022/01/18 02:04:52;;;;;;;4.68;1.42;;;;;;;-5.43;100.00;103140.47;5048843;28;20044;-49
2022/01/18 02:07:17;;;;;;;4.50;1.70;;;;;;;-5.48;100.00;103137.94;5037355;28;20060;-51
2022/01/18 02:09:43;;;;;;;8.95;1.83;;;;;;;-5.48;100.00;103134.50;5044894;28;20041;-52
2022/01/18 02:12:10;;;;;;;6.97;2.20;;;;;;;-5.46;100.00;103134.50;5043779;28;20033;-49
2022/01/18 02:14:35;;;;;;;5.20;2.75;;;;;;;-5.49;100.00;103130.22;5040385;28;20037;-52
2022/01/18 02:22:29;;;;;;;3.47;1.35;;;;;;;-5.59;100.00;103134.69;5039589;28;20500;-52
2022/01/18 02:24:55;;;;;;;8.02;3.22;;;;;;;-5.56;100.00;103124.28;5051900;28;20076;-49
2022/01/18 02:27:20;;;;;;;5.63;2.00;;;;;;;-5.57;100.00;103127.75;5033483;28;20056;-52
2022/01/18 02:29:46;;;;;;;7.00;1.63;;;;;;;-5.60;100.00;103127.81;5041912;28;20033;-53
2022/01/18 02:32:11;;;;;;;5.00;1.63;;;;;;;-5.64;100.00;103125.28;5045958;28;20025;-51
2022/01/18 02:34:36;;;;;;;8.43;1.45;;;;;;;-5.67;100.00;103121.00;5041463;28;20153;-50
2022/01/18 02:37:04;;;;;;;6.35;1.98;;;;;;;-5.66;100.00;103117.53;5045224;28;20040;-48
2022/01/18 02:39:30;;;;;;;6.43;1.08;;;;;;;-5.67;100.00;103123.59;5044130;28;20365;-48
2022/01/18 02:42:02;;;;;;;6.18;1.92;;;;;;;-5.67;100.00;103121.00;5037737;28;20108;-50
2022/01/18 02:44:30;;;;;;;5.38;1.70;;;;;;;-5.67;100.00;103115.84;5042703;28;20038;-51
2022/01/18 02:46:56;;;;;;;10.85;1.95;;;;;;;-5.68;100.00;103108.94;5041610;28;20033;-54
2022/01/18 02:49:22;;;;;;;3.35;1.27;;;;;;;-5.69;100.00;103117.59;5040908;28;20041;-52
2022/01/18 02:51:48;;;;;;;4.38;1.48;;;;;;;-5.71;100.00;103109.00;5042999;28;20113;-48
2022/01/18 02:54:17;;;;;;;3.72;1.42;;;;;;;-5.71;100.00;103104.66;5045748;28;20108;-49
2022/01/18 02:56:47;;;;;;;7.30;1.83;;;;;;;-5.72;100.00;103104.72;5047084;28;20048;-50
2022/01/18 02:59:29;;;;;;;4.47;1.10;;;;;;;-5.74;100.00;103109.03;5026750;28;20083;-48
2022/01/18 03:04:40;;;;;;;7.43;1.02;;;;;;;-5.84;100.00;103108.31;5037230;28;20112;-49
2022/01/18 03:07:07;;;;;;;5.20;1.15;;;;;;;-5.86;100.00;103101.44;5042477;28;20480;-53
2022/01/18 03:09:32;;;;;;;2.58;1.42;;;;;;;-5.93;100.00;103111.03;5037190;28;20143;-51
2022/01/18 03:11:58;;;;;;;6.60;1.45;;;;;;;-5.98;100.00;103111.13;5039528;28;20494;-51
2022/01/18 03:14:23;;;;;;;5.95;2.05;;;;;;;-5.96;100.00;103111.97;5039074;28;20048;-51
2022/01/18 03:16:49;;;;;;;2.60;1.15;;;;;;;-5.90;100.00;103112.72;5046580;28;20127;-51
2022/01/18 03:19:14;;;;;;;9.60;1.35;;;;;;;-5.92;100.00;103112.72;5041080;28;20087;-51
2022/01/18 03:21:41;;;;;;;9.48;1.52;;;;;;;-5.87;100.00;103110.09;5031892;28;20040;-52
2022/01/18 03:29:28;;;;;;;2.75;1.17;;;;;;;-5.79;100.00;103111.69;5043870;28;20083;-50
2022/01/18 03:31:54;;;;;;;8.80;1.63;;;;;;;-5.80;100.00;103098.81;5045761;28;20498;-48
2022/01/18 03:34:20;;;;;;;3.75;1.23;;;;;;;-5.83;100.00;103104.03;5043957;28;20036;-48
2022/01/18 03:36:46;;;;;;;6.28;2.22;;;;;;;-5.87;100.00;103110.94;5046728;28;20029;-51
2022/01/18 03:39:11;;;;;;;3.97;0.90;;;;;;;-5.88;100.00;103103.22;5047086;28;20041;-52
2022/01/18 03:41:37;;;;;;;3.47;0.88;;;;;;;-5.85;100.00;103103.19;5046382;28;20383;-54
2022/01/18 03:44:02;;;;;;;11.23;1.52;;;;;;;-5.86;100.00;103106.63;5046186;28;20458;-53
2022/01/18 03:46:28;;;;;;;6.05;2.25;;;;;;;-5.93;100.00;103093.78;5042554;28;20037;-51
2022/01/18 03:48:54;;;;;;;5.95;1.80;;;;;;;-5.94;100.00;103101.59;5035843;28;20390;-50
2022/01/18 03:51:20;;;;;;;6.43;1.00;;;;;;;-5.96;100.00;103088.72;5034118;28;20037;-52
2022/01/18 03:53:45;;;;;;;1.27;0.75;;;;;;;-5.98;100.00;103094.78;5045262;28;20029;-48
2022/01/18 03:56:11;;;;;;;1.70;1.27;;;;;;;-6.04;100.00;103095.72;5045679;28;20113;-48
2022/01/18 03:58:37;;;;;;;3.20;0.77;;;;;;;-6.10;100.00;103095.78;5037125;28;20031;-55
2022/01/18 04:01:03;;;;;;;4.07;1.23;;;;;;;-6.10;100.00;103097.50;5038085;28;20045;-50
2022/01/18 04:03:29;;;;;;;4.50;1.38;;;;;;;-6.11;100.00;103099.25;5038641;28;20037;-51
2022/01/18 04:05:56;;;;;;;4.75;1.13;;;;;;;-6.11;100.00;103093.22;5043247;28;20031;-51
2022/01/18 04:08:22;;;;;;;7.80;1.40;;;;;;;-6.05;100.00;103091.41;5039367;28;20063;-51
2022/01/18 04:10:48;;;;;;;5.97;1.42;;;;;;;-6.05;100.00;103093.97;5036316;28;20041;-51
2022/01/18 04:13:13;;;;;;;3.03;1.38;;;;;;;-6.07;100.00;103095.72;5046558;28;20047;-50
2022/01/18 04:15:39;;;;;;;7.03;2.05;;;;;;;-6.11;100.00;103090.66;5045771;28;20474;-48
2022/01/18 04:28:53;;;;;;;4.07;1.17;;;;;;;-6.14;100.00;103078.63;5028839;28;20768;-50
2022/01/18 04:31:18;;;;;;;9.93;1.25;;;;;;;-6.17;100.00;103079.50;5039442;28;20120;-50
2022/01/18 04:33:44;;;;;;;8.98;1.55;;;;;;;-6.21;100.00;103077.84;5040164;28;20115;-52
2022/01/18 04:36:09;;;;;;;4.80;1.38;;;;;;;-6.22;100.00;103072.66;5042194;28;20466;-49
2022/01/18 04:38:36;;;;;;;4.90;1.67;;;;;;;-6.20;100.00;103073.50;5040208;28;20037;-52
2022/01/18 04:41:07;;;;;;;7.63;1.20;;;;;;;-6.18;100.00;103066.59;5036251;28;20051;-50
2022/01/18 04:48:56;;;;;;;7.22;2.20;;;;;;;-6.25;100.00;103065.81;5037480;28;20097;-51
2022/01/18 04:51:22;;;;;;;4.07;2.05;;;;;;;-6.27;100.00;103058.97;5039175;28;20460;-50
2022/01/18 04:53:58;;;;;;;6.80;1.23;;;;;;;-6.25;100.00;103060.66;5038467;28;20032;-49
2022/01/18 04:57:51;;;;;;;3.10;1.13;;;;;;;-6.22;100.00;103060.63;5044679;28;20421;-51
2022/01/18 04:59:17;;;;;;;5.50;1.08;;;;;;;-6.21;100.00;103046.84;5039886;28;20048;-49
2022/01/18 05:01:46;;;;;;;8.57;3.30;;;;;;;-6.23;100.00;103052.91;5035900;28;20078;-52
2022/01/18 05:04:12;;;;;;;5.03;1.65;;;;;;;-6.27;100.00;103051.22;5038895;28;20079;-51
2022/01/18 05:06:38;;;;;;;8.52;2.03;;;;;;;-6.25;100.00;103050.31;5032512;28;20030;-53
2022/01/18 05:09:09;;;;;;;3.63;1.05;;;;;;;-6.25;100.00;103049.47;5040141;28;20086;-52
2022/01/18 05:11:43;;;;;;;4.00;0.73;;;;;;;-6.28;100.00;103049.53;5043259;28;20044;-50
2022/01/18 05:14:27;;;;;;;4.18;1.08;;;;;;;-6.33;100.00;103053.88;5037147;28;20536;-51
2022/01/18 05:24:32;;;;;;;2.65;1.17;;;;;;;-6.43;100.00;103035.94;5036526;28;20495;-51
2022/01/18 05:27:00;;;;;;;6.65;0.82;;;;;;;-6.43;100.00;103045.41;5032945;28;20052;-51
2022/01/18 05:29:26;;;;;;;3.28;0.82;;;;;;;-6.44;100.00;103036.81;5037379;28;20483;-53
2022/01/18 05:31:52;;;;;;;2.58;0.85;;;;;;;-6.40;100.00;103043.66;5039040;28;20137;-50
2022/01/18 05:34:17;;;;;;;5.17;0.93;;;;;;;-6.40;100.00;103040.19;5033720;28;20116;-51
2022/01/18 05:36:43;;;;;;;6.00;1.13;;;;;;;-6.41;100.00;103041.91;5043898;28;20037;-51
2022/01/18 05:39:09;;;;;;;1.00;0.80;;;;;;;-6.42;100.00;103044.53;5039453;28;20371;-51
2022/01/18 05:41:38;;;;;;;2.67;1.08;;;;;;;-6.43;100.00;103045.41;5046890;28;20029;-52
2022/01/18 05:44:04;;;;;;;2.20;0.77;;;;;;;-6.41;100.00;103039.34;5040967;28;20028;-49
2022/01/18 05:46:30;;;;;;;1.27;0.65;;;;;;;-6.40;100.00;103041.06;5036101;28;20128;-50
2022/01/18 05:48:56;;;;;;;3.53;1.02;;;;;;;-6.40;100.00;103042.78;5043613;28;20404;-48
2022/01/18 05:51:21;;;;;;;7.07;1.58;;;;;;;-6.40;100.00;103050.50;5040062;28;20033;-50
2022/01/18 05:53:47;;;;;;;5.10;1.05;;;;;;;-6.39;100.00;103041.91;5039532;28;20500;-49
2022/01/18 05:56:12;;;;;;;7.32;2.38;;;;;;;-6.41;100.00;103043.66;5041046;28;20044;-49
2022/01/18 05:58:44;;;;;;;2.70;0.85;;;;;;;-6.45;100.00;103048.00;5038979;28;20033;-54
2022/01/18 06:01:10;;;;;;;3.38;0.90;;;;;;;-6.53;100.00;103039.50;5025660;28;20031;-52
2022/01/18 06:03:50;;;;;;;1.92;1.02;;;;;;;-6.50;100.00;103048.94;5044512;28;20116;-50
2022/01/18 06:09:00;;;;;;;1.98;1.40;;;;;;;-6.51;100.00;103044.63;5044229;28;20044;-51
2022/01/18 06:11:25;;;;;;;3.67;0.93;;;;;;;-6.51;100.00;103042.06;5043532;28;20405;-50
2022/01/18 06:13:50;;;;;;;4.78;1.75;;;;;;;-6.45;100.00;103045.44;5041237;28;20040;-48
2022/01/18 06:16:16;;;;;;;5.78;1.02;;;;;;;-6.40;100.00;103046.22;5039794;28;20080;-52
2022/01/18 06:18:41;;;;;;;4.03;1.10;;;;;;;-6.38;100.00;103043.59;5041598;28;20032;-51
2022/01/18 06:21:06;;;;;;;2.33;1.00;;;;;;;-6.42;100.00;103047.97;5027165;28;20127;-51
2022/01/18 06:23:32;;;;;;;3.30;0.95;;;;;;;-6.43;100.00;103042.81;5036424;28;20040;-52
2022/01/18 06:25:58;;;;;;;3.00;1.20;;;;;;;-6.42;100.00;103042.81;5040944;28;20083;-50
2022/01/18 06:28:23;;;;;;;6.00;1.48;;;;;;;-6.40;100.00;103046.22;5041370;28;20025;-50
2022/01/18 06:30:49;;;;;;;5.55;2.78;;;;;;;-6.41;100.00;103044.50;5038762;28;20036;-48
2022/01/18 06:33:15;;;;;;;5.53;1.73;;;;;;;-6.44;100.00;103043.69;5039977;28;20040;-49
2022/01/18 06:35:40;;;;;;;6.25;1.63;;;;;;;-6.42;100.00;103032.47;5036498;28;20074;-49
2022/01/18 06:38:08;;;;;;;9.30;1.70;;;;;;;-6.38;100.00;103048.78;5033260;28;20046;-52
2022/01/18 06:40:33;;;;;;;1.90;1.00;;;;;;;-6.41;100.00;103039.34;5038945;28;20033;-52
2022/01/18 06:42:58;;;;;;;5.72;1.30;;;;;;;-6.43;100.00;103042.81;5038985;28;20029;-53
2022/01/18 06:45:24;;;;;;;4.40;1.33;;;;;;;-6.51;100.00;103045.50;5043491;28;20372;-50
2022/01/18 06:47:49;;;;;;;1.70;0.65;;;;;;;-6.59;100.00;103039.56;5033771;28;20040;-55
2022/01/18 06:50:15;;;;;;;2.92;1.30;;;;;;;-6.62;100.00;103039.59;5037711;28;20029;-51
2022/01/18 06:52:40;;;;;;;5.30;1.15;;;;;;;-6.54;100.00;103039.50;5038418;28;20545;-51
2022/01/18 06:55:07;;;;;;;5.78;1.33;;;;;;;-6.48;100.00;103047.19;5032295;28;20033;-52
2022/01/18 06:57:33;;;;;;;8.40;1.35;;;;;;;-6.46;100.00;103045.44;5040990;28;20543;-52
2022/01/18 06:59:59;;;;;;;2.92;2.67;;;;;;;-6.45;100.00;103047.16;5035846;28;20029;-50
2022/01/18 07:02:25;;;;;;;6.20;1.23;;;;;;;-6.45;100.00;103053.19;5041102;28;20033;-53
2022/01/18 07:04:50;;;;;;;3.33;1.52;;;;;;;-6.46;100.00;103051.44;5036941;28;20033;-49
2022/01/18 07:07:17;;;;;;;6.47;1.38;;;;;;;-6.45;100.00;103054.91;5036960;28;20108;-50
2022/01/18 07:09:44;;;;;;;12.07;3.08;;;;;;;-6.46;100.00;103059.19;5042009;28;20025;-50
2022/01/18 07:12:11;;;;;;;6.35;2.53;;;;;;;-6.50;100.00;103065.28;5040232;28;20397;-51
2022/01/18 07:14:37;;;;;;;4.45;1.65;;;;;;;-6.51;100.00;103062.69;5044221;28;20482;-52
2022/01/18 07:17:02;;;;;;;5.82;1.92;;;;;;;-6.49;100.00;103072.16;5043949;28;20463;-55
2022/01/18 07:19:31;;;;;;;6.57;2.03;;;;;;;-6.49;100.00;103071.28;5045735;28;20048;-50
2022/01/18 07:21:56;;;;;;;7.88;1.70;;;;;;;-6.55;100.00;103069.66;5038572;28;20049;-53
2022/01/18 07:24:36;;;;;;;8.60;1.35;;;;;;;-6.56;100.00;103067.91;5039198;28;20151;-52
2022/01/18 07:27:03;;;;;;;6.60;2.15;;;;;;;-6.49;100.00;103069.56;5035242;28;20043;-48
2022/01/18 07:29:28;;;;;;;4.38;0.93;;;;;;;-6.44;100.00;103072.94;5001834;28;1123638;-53
2022/01/18 07:31:53;;;;;;;7.90;2.05;;;;;;;-6.44;100.00;103070.34;5029591;28;20183;-54
2022/01/18 07:34:19;;;;;;;7.53;1.13;;;;;;;-6.44;100.00;103074.69;5029582;28;20128;-54
2022/01/18 07:36:44;;;;;;;13.70;1.92;;;;;;;-6.49;100.00;103072.16;5019581;28;20028;-53
2022/01/18 07:39:10;;;;;;;7.18;1.17;;;;;;;-6.49;100.00;103066.13;5046025;28;20033;-49
2022/01/18 07:41:36;;;;;;;8.95;2.35;;;;;;;-6.46;100.00;103071.25;5037031;28;20044;-50
2022/01/18 07:44:01;;;;;;;6.53;1.70;;;;;;;-6.42;100.00;103057.44;5039294;28;20417;-54
2022/01/18 07:46:26;;;;;;;5.25;1.95;;;;;;;-6.41;100.00;103059.16;5040046;28;20459;-50
2022/01/18 07:48:52;;;;;;;8.80;1.88;;;;;;;-6.44;100.00;103054.88;5042470;28;20040;-51
2022/01/18 07:51:17;;;;;;;14.50;1.92;;;;;;;-6.44;100.00;103054.88;5038344;28;20029;-51
2022/01/18 07:53:43;;;;;;;10.75;1.42;;;;;;;-6.45;100.00;103052.31;5036249;28;20039;-55
2022/01/18 07:56:08;;;;;;;9.70;1.73;;;;;;;-6.46;100.00;103059.19;5038227;28;20029;-50
2022/01/18 07:58:34;;;;;;;12.40;2.10;;;;;;;-6.42;100.00;103060.03;5035615;28;20054;-51
2022/01/18 08:01:00;;;;;;;4.90;1.70;;;;;;;-6.43;100.00;103064.34;5030332;28;21924;-51
2022/01/18 08:03:28;;;;;;;8.20;2.28;;;;;;;-6.41;100.00;103062.56;5032795;28;20017;-54
2022/01/18 08:05:54;;;;;;;8.55;1.90;;;;;;;-6.36;100.00;103067.69;5039202;28;20032;-54
2022/01/18 08:08:20;;;;;;;7.30;1.45;;;;;;;-6.37;100.00;103066.84;5039641;28;20031;-48
2022/01/18 08:10:45;;;;;;;7.88;1.83;;;;;;;-6.39;100.00;103075.47;5041980;28;20470;-51
2022/01/18 08:13:12;;;;;;;6.95;1.58;;;;;;;-6.40;100.00;103077.22;5041274;28;20047;-51
2022/01/18 08:15:42;;;;;;;10.18;2.13;;;;;;;-6.43;100.00;103079.84;5014052;28;20039;-53
2022/01/18 08:18:11;;;;;;;5.82;1.33;;;;;;;-6.33;100.00;103084.88;5035676;28;20383;-51
2022/01/18 08:20:36;;;;;;;10.18;2.95;;;;;;;-6.25;100.00;103093.38;5040960;28;20029;-52
2022/01/18 08:23:02;;;;;;;6.07;1.45;;;;;;;-6.20;100.00;103089.84;5040762;28;20035;-53
2022/01/18 08:25:27;;;;;;;8.30;1.95;;;;;;;-6.16;100.00;103091.53;5038721;28;20797;-51
2022/01/18 08:27:54;;;;;;;10.68;2.47;;;;;;;-6.13;100.00;103097.56;5042800;28;20132;-53
2022/01/18 08:30:20;;;;;;;3.95;2.08;;;;;;;-6.14;100.00;103096.69;5037009;28;20055;-51
2022/01/18 08:32:47;;;;;;;4.50;1.73;;;;;;;-6.12;100.00;103094.06;5037701;28;20052;-53
2022/01/18 08:35:13;;;;;;;9.35;2.03;;;;;;;-6.16;100.00;103093.28;5044912;28;20044;-52
2022/01/18 08:37:38;;;;;;;10.07;1.90;;;;;;;-6.12;100.00;103096.66;5038698;28;20040;-49
2022/01/18 08:40:05;;;;;;;8.50;2.85;;;;;;;-6.10;100.00;103093.19;5045116;28;20033;-49
2022/01/18 08:42:31;;;;;;;9.25;2.45;;;;;;;-6.03;100.00;103096.56;5035611;28;20136;-52
2022/01/18 08:44:56;;;;;;;9.38;2.42;;;;;;;-5.99;100.00;103090.47;5043626;28;20033;-50
2022/01/18 08:47:24;;;;;;;19.60;3.72;;;;;;;-5.90;100.00;103087.72;5039898;28;20028;-51
2022/01/18 08:49:50;;;;;;;7.05;2.05;;;;;;;-5.80;100.00;103097.06;5036053;28;20446;-53
2022/01/18 08:52:15;;;;;;;6.45;2.13;;;;;;;-5.75;100.00;103097.84;5036790;28;20044;-49
2022/01/18 08:54:42;;;;;;;23.98;3.75;;;;;;;-5.73;100.00;103098.69;5045883;28;20115;-53
2022/01/18 08:57:08;;;;;;;7.50;2.42;;;;;;;-5.68;100.00;103092.59;5033767;28;20040;-52
2022/01/18 08:59:35;;;;;;;11.30;2.70;;;;;;;-5.64;100.00;103089.94;5044908;28;20033;-52
2022/01/18 09:02:05;;;;;;;6.03;2.38;;;;;;;-5.55;100.00;103089.81;5044894;28;20067;-54
2022/01/18 09:04:30;;;;;;;6.57;2.90;;;;;;;-5.48;100.00;103091.41;5045383;28;20036;-47
2022/01/18 09:06:57;;;;;;;5.43;2.88;;;;;;;-5.39;100.00;103085.25;5038162;28;20047;-53
2022/01/18 09:09:22;;;;;;;5.95;3.00;;;;;;;-5.33;100.00;103074.81;5031873;28;20036;-51
2022/01/18 09:11:48;;;;;;;9.05;4.13;;;;;;;-5.29;100.00;103089.41;5037836;28;20025;-50
2022/01/18 09:14:14;;;;;;;11.88;4.75;;;;;;;-5.23;100.00;103091.03;5040217;28;20040;-50
2022/01/18 09:16:41;;;;;;;7.88;2.75;;;;;;;-5.16;100.00;103092.66;5026486;28;20043;-50
2022/01/18 09:19:06;;;;;;;20.13;4.32;;;;;;;-5.07;100.00;103089.88;5039634;28;20037;-51
2022/01/18 09:21:33;;;;;;;9.38;3.38;;;;;;;-5.00;100.00;103102.75;5045952;28;20028;-48
2022/01/18 09:23:59;;;;;;;18.92;4.82;;;;;;;-4.96;100.00;103105.22;5043574;28;20037;-50
2022/01/18 09:26:24;;;;;;;14.95;3.83;;;;;;;-4.86;100.00;103100.75;5032576;28;20036;-52
2022/01/18 09:28:50;;;;;;;12.82;4.20;;;;;;;-4.66;100.00;103111.59;5043609;28;20029;-54
2022/01/18 09:31:16;;;;;;;12.82;4.50;;;;;;;-4.53;100.00;103108.78;5039558;28;20395;-50
2022/01/18 09:33:42;;;;;;;16.77;4.35;;;;;;;-4.48;100.00;103118.16;5018929;28;20040;-50
2022/01/18 09:36:08;;;;;;;7.88;3.63;;;;;;;-4.37;100.00;103110.19;5045316;28;20063;-50
2022/01/18 09:38:34;;;;;;;16.40;4.90;;;;;;;-4.19;100.00;103112.41;5044447;28;20036;-50
2022/01/18 09:41:00;;;;;;;11.45;4.72;;;;;;;-4.00;100.00;103106.84;5039522;28;20037;-52
2022/01/18 09:43:27;;;;;;;19.63;6.13;;;;;;;-3.89;100.00;103102.28;5038634;28;20033;-52
2022/01/18 09:45:56;;;;;;;10.52;4.25;;;;;;;-3.77;100.00;103096.84;5030653;28;20465;-52
2022/01/18 09:48:21;;;;;;;12.13;3.58;;;;;;;-3.74;100.00;103101.13;5040424;28;20292;-50
2022/01/18 09:50:47;;;;;;;7.88;2.60;;;;;;;-3.67;100.00;103101.81;5039418;28;20044;-50
2022/01/18 09:53:14;;;;;;;11.25;3.30;;;;;;;-3.54;100.00;103098.91;5038954;28;20040;-49
2022/01/18 09:55:40;;;;;;;12.27;4.57;;;;;;;-3.45;100.00;103102.19;5056645;28;20183;-49
2022/01/18 09:58:07;;;;;;;6.03;2.90;;;;;;;-3.48;100.00;103102.22;5044471;28;20029;-52
2022/01/18 10:00:35;;;;;;;13.30;4.50;;;;;;;-3.44;100.00;103104.72;5041494;28;20033;-50
2022/01/18 10:03:00;;;;;;;9.32;4.30;;;;;;;-3.43;100.00;103108.16;5040104;28;20037;-56
2022/01/18 10:05:29;;;;;;;10.05;4.47;;;;;;;-3.49;100.00;103106.56;5042662;28;20389;-53
2022/01/18 10:07:56;;;;;;;11.13;3.58;;;;;;;-3.44;100.00;103090.91;5042974;28;20044;-51
2022/01/18 10:10:50;;;;;;;7.78;4.35;;;;;;;-3.20;100.00;103097.22;5044643;28;20079;-53
2022/01/18 10:13:31;;;;;;;8.00;3.33;;;;;;;-3.01;100.00;103092.44;5038286;28;20033;-53
2022/01/18 10:16:19;;;;;;;9.95;3.47;;;;;;;-2.74;100.00;103096.06;5038626;28;20125;-53
2022/01/18 10:18:48;;;;;;;12.45;4.30;;;;;;;-2.57;100.00;103100.81;5044119;28;20049;-51
2022/01/18 10:21:26;;;;;;;15.50;4.05;;;;;;;-2.42;100.00;103098.63;5036088;28;20037;-49
2022/01/18 10:24:09;;;;;;;7.85;2.83;;;;;;;-2.31;100.00;103087.09;5048147;28;20478;-48
2022/01/18 10:26:41;;;;;;;9.52;3.72;;;;;;;-2.21;100.00;103101.53;5044300;28;20124;-52
2022/01/18 10:29:07;;;;;;;7.25;3.70;;;;;;;-2.11;100.00;103100.38;5045230;28;20033;-49
2022/01/18 10:31:40;;;;;;;13.55;4.70;;;;;;;-1.96;100.00;103088.69;5044429;28;20042;-53
2022/01/18 10:34:40;;;;;;;7.63;3.65;;;;;;;-1.83;100.00;103094.34;5037203;28;20033;-51
2022/01/18 10:37:08;;;;;;;17.98;4.03;;;;;;;-1.79;100.00;103094.19;5044772;28;20474;-53
2022/01/18 10:39:51;;;;;;;9.30;3.90;;;;;;;-1.77;100.00;103082.00;5044244;28;20059;-48
2022/01/18 10:42:42;;;;;;;9.98;4.22;;;;;;;-1.68;100.00;103086.06;5046368;28;20032;-53
2022/01/18 10:45:14;;;;;;;6.18;3.25;;;;;;;-1.51;100.00;103090.75;5033629;28;20055;-52
2022/01/18 10:47:57;;;;;;;9.52;5.20;;;;;;;-1.31;100.00;103092.72;5048621;28;20496;-53
2022/01/18 10:50:24;;;;;;;5.82;3.90;;;;;;;-1.21;100.00;103090.66;5031068;28;20029;-49
2022/01/18 10:52:52;;;;;;;7.10;3.80;;;;;;;-1.12;100.00;103091.19;5043389;28;20034;-53
2022/01/18 10:55:24;;;;;;;11.35;4.72;;;;;;;-0.97;100.00;103087.22;5041253;28;20478;-50
2022/01/18 10:57:50;;;;;;;9.35;3.20;;;;;;;-0.84;100.00;103089.41;5040113;28;20040;-53
2022/01/18 11:00:22;;;;;;;11.98;4.85;;;;;;;-0.69;100.00;103097.53;5043385;28;20032;-51
2022/01/18 11:02:53;;;;;;;16.05;4.88;;;;;;;-0.56;100.00;103110.16;5047165;28;20806;-52
2022/01/18 11:05:18;;;;;;;15.00;6.75;;;;;;;-0.48;100.00;103103.75;5040919;28;20032;-51
2022/01/18 11:07:45;;;;;;;9.10;4.85;;;;;;;-0.34;100.00;103095.41;5039629;28;20039;-52
2022/01/18 11:10:12;;;;;;;10.23;4.45;;;;;;;-0.15;100.00;103094.75;5047312;28;20027;-52
2022/01/18 11:13:10;;;;;;;7.00;3.22;;;;;;;0.09;100.00;103098.19;5041500;28;20562;-51
2022/01/18 11:15:40;;;;;;;14.13;5.28;;;;;;;0.20;100.00;103099.47;5039226;28;20030;-48
2022/01/18 11:18:14;;;;;;;7.78;3.70;;;;;;;0.29;100.00;103084.38;5037880;28;20206;-50
2022/01/18 11:20:42;;;;;;;6.05;3.35;;;;;;;0.38;100.00;103087.44;5042577;28;20044;-50
2022/01/18 11:23:09;;;;;;;9.38;4.28;;;;;;;0.44;100.00;103086.38;5039300;28;20040;-50
2022/01/18 11:25:36;;;;;;;8.65;3.63;;;;;;;0.50;100.00;103088.72;5042459;28;20033;-51
2022/01/18 11:28:04;;;;;;;8.60;4.47;;;;;;;0.61;100.00;103083.06;5046477;28;20041;-51
2022/01/18 11:30:32;;;;;;;11.43;5.53;;;;;;;0.65;100.00;103080.28;5039020;28;20083;-52
2022/01/18 11:33:00;;;;;;;10.98;4.07;;;;;;;0.74;100.00;103079.03;5045584;28;20039;-50
2022/01/18 11:35:44;;;;;;;10.82;3.83;;;;;;;0.80;100.00;103083.16;5046375;28;20033;-51
2022/01/18 11:38:36;;;;;;;17.58;5.35;;;;;;;0.86;100.00;103070.69;5039429;28;20029;-52
2022/01/18 11:41:05;;;;;;;;;;;;;;;0.93;100.00;103070.44;5035802;28;20045;-52
2022/01/18 11:43:35;;;;;;;12.18;4.03;;;;;;;0.94;100.00;103065.16;5044870;28;19917;-51
2022/01/18 11:46:00;;;;;;;13.85;6.20;;;;;;;0.99;100.00;103068.41;5046243;28;20029;-51
2022/01/18 11:48:25;;;;;;;11.55;3.58;;;;;;;1.02;100.00;103057.84;5044382;28;20477;-51
2022/01/18 11:51:05;;;;;;;11.00;4.25;;;;;;;1.16;100.00;103051.16;5035974;28;20040;-52
2022/01/18 11:56:34;;;;;;;11.95;3.50;;;;;;;1.25;100.00;103051.59;5041412;28;20039;-51
2022/01/18 11:59:35;;;;;;;8.60;3.35;;;;;;;1.33;100.00;103043.44;5031787;28;20052;-49
2022/01/18 12:02:05;;;;;;;13.05;4.20;;;;;;;1.38;100.00;103045.84;5031210;28;20029;-50
2022/01/18 12:04:48;;;;;;;15.35;3.28;;;;;;;1.45;100.00;103045.50;5046766;28;20025;-52
2022/01/18 12:07:36;;;;;;;6.50;3.53;;;;;;;1.51;100.00;103042.59;5034440;28;20391;-53
2022/01/18 12:10:08;;;;;;;10.00;4.63;;;;;;;1.59;100.00;103038.78;5044707;28;20476;-50
2022/01/18 12:12:39;;;;;;;13.68;5.40;;;;;;;1.60;100.00;103041.34;5041585;28;20032;-51
2022/01/18 12:15:26;;;;;;;15.43;5.78;;;;;;;1.66;100.00;103035.00;5042802;28;20037;-49
2022/01/18 12:17:54;;;;;;;17.50;5.43;;;;;;;1.70;100.00;103029.56;5045416;28;20045;-51
2022/01/18 12:20:44;;;;;;;16.45;6.30;;;;;;;1.70;100.00;103026.94;5041284;28;20425;-52
2022/01/18 12:23:13;;;;;;;15.02;6.13;;;;;;;1.73;100.00;103021.56;5041420;28;20043;-49
2022/01/18 12:26:27;;;;;;;14.35;4.60;;;;;;;1.78;100.00;103031.78;5047134;28;20087;-52
2022/01/18 12:29:21;;;;;;;12.40;4.10;;;;;;;1.77;100.00;103032.72;5036048;28;20052;-52
2022/01/18 12:34:30;;;;;;;10.85;6.28;;;;;;;1.82;100.00;103029.91;5045930;28;20178;-50
2022/01/18 12:37:07;;;;;;;13.60;5.80;;;;;;;1.84;100.00;103028.91;5036296;28;20032;-51
2022/01/18 12:40:05;;;;;;;13.13;6.80;;;;;;;1.88;100.00;103027.81;5034883;28;20037;-53
2022/01/18 12:45:06;;;;;;;14.63;5.72;;;;;;;1.98;100.00;103003.84;5036401;28;20453;-49